sensor_id;sensor_type;location;lat;lon;timestamp;pressure;altitude;pressure_sealevel;temperature;humidity
57572;BME280;44459;43.522;24.470;2023-11-25T00:02:21;98296.00;;;7.84;100.00
57572;BME280;44459;43.522;24.470;2023-11-25T00:04:47;98302.09;;;7.87;100.00
57572;BME280;44459;43.522;24.470;2023-11-25T00:07:12;98314.31;;;7.88;100.00
57572;BME280;44459;43.522;24.470;2023-11-25T00:09:38;98323.16;;;7.81;100.00
57572;BME280;44459;43.522;24.470;2023-11-25T00:12:03;98343.41;;;7.73;100.00
57572;BME280;44459;43.522;24.470;2023-11-25T00:14:29;98353.16;;;7.65;100.00
57572;BME280;44459;43.522;24.470;2023-11-25T00:16:54;98365.47;;;7.58;100.00
57572;BME280;44459;43.522;24.470;2023-11-25T00:19:20;98349.84;;;7.48;100.00
57572;BME280;44459;43.522;24.470;2023-11-25T00:21:45;98334.09;;;7.49;100.00
57572;BME280;44459;43.522;24.470;2023-11-25T00:24:11;98333.09;;;7.59;100.00
57572;BME280;44459;43.522;24.470;2023-11-25T00:26:37;98320.06;;;7.52;100.00
57572;BME280;44459;43.522;24.470;2023-11-25T00:29:02;98308.56;;;7.60;100.00
57572;BME280;44459;43.522;24.470;2023-11-25T00:31:28;98308.59;;;7.59;100.00
57572;BME280;44459;43.522;24.470;2023-11-25T00:33:54;98300.81;;;7.50;100.00
57572;BME280;44459;43.522;24.470;2023-11-25T00:36:20;98306.09;;;7.48;100.00
57572;BME280;44459;43.522;24.470;2023-11-25T00:38:46;98307.94;;;7.42;100.00
57572;BME280;44459;43.522;24.470;2023-11-25T00:41:12;98300.94;;;7.42;100.00
57572;BME280;44459;43.522;24.470;2023-11-25T00:43:37;98306.16;;;7.45;100.00
57572;BME280;44459;43.522;24.470;2023-11-25T00:46:03;98308.78;;;7.45;100.00
57572;BME280;44459;43.522;24.470;2023-11-25T00:48:29;98317.41;;;7.53;100.00
57572;BME280;44459;43.522;24.470;2023-11-25T00:50:56;98312.13;;;7.55;100.00
57572;BME280;44459;43.522;24.470;2023-11-25T00:53:23;98306.09;;;7.47;100.00
57572;BME280;44459;43.522;24.470;2023-11-25T00:55:48;98299.16;;;7.46;100.00
57572;BME280;44459;43.522;24.470;2023-11-25T00:58:14;98299.19;;;7.40;100.00
57572;BME280;44459;43.522;24.470;2023-11-25T01:00:39;98282.63;;;7.36;100.00
57572;BME280;44459;43.522;24.470;2023-11-25T01:03:05;98268.63;;;7.37;100.00
57572;BME280;44459;43.522;24.470;2023-11-25T01:05:32;98253.56;;;7.53;100.00
57572;BME280;44459;43.522;24.470;2023-11-25T01:07:57;98242.19;;;7.51;100.00
57572;BME280;44459;43.522;24.470;2023-11-25T01:10:23;98241.34;;;7.47;100.00
57572;BME280;44459;43.522;24.470;2023-11-25T01:12:48;98240.53;;;7.45;100.00
57572;BME280;44459;43.522;24.470;2023-11-25T01:15:14;98236.22;;;7.40;100.00
57572;BME280;44459;43.522;24.470;2023-11-25T01:17:40;98226.63;;;7.36;100.00
57572;BME280;44459;43.522;24.470;2023-11-25T01:20:06;98230.06;;;7.42;100.00
57572;BME280;44459;43.522;24.470;2023-11-25T01:22:32;98223.09;;;7.40;100.00
57572;BME280;44459;43.522;24.470;2023-11-25T01:24:57;98217.78;;;7.43;100.00
57572;BME280;44459;43.522;24.470;2023-11-25T01:27:23;98220.41;;;7.43;100.00
57572;BME280;44459;43.522;24.470;2023-11-25T01:29:49;98212.53;;;7.44;100.00
57572;BME280;44459;43.522;24.470;2023-11-25T01:32:15;98205.53;;;7.43;100.00
57572;BME280;44459;43.522;24.470;2023-11-25T01:34:40;98195.91;;;7.44;100.00
57572;BME280;44459;43.522;24.470;2023-11-25T01:37:06;98189.69;;;7.51;100.00
57572;BME280;44459;43.522;24.470;2023-11-25T01:39:32;98187.16;;;7.45;100.00
57572;BME280;44459;43.522;24.470;2023-11-25T01:41:59;98174.91;;;7.45;100.00
57572;BME280;44459;43.522;24.470;2023-11-25T01:44:25;98175.78;;;7.44;100.00
57572;BME280;44459;43.522;24.470;2023-11-25T01:46:50;98174.06;;;7.42;100.00
57572;BME280;44459;43.522;24.470;2023-11-25T01:49:19;98181.97;;;7.40;100.00
57572;BME280;44459;43.522;24.470;2023-11-25T01:51:46;98173.16;;;7.43;100.00
57572;BME280;44459;43.522;24.470;2023-11-25T01:54:16;98168.78;;;7.45;100.00
57572;BME280;44459;43.522;24.470;2023-11-25T01:56:42;98164.47;;;7.41;100.00
57572;BME280;44459;43.522;24.470;2023-11-25T01:59:10;98165.50;;;7.29;100.00
57572;BME280;44459;43.522;24.470;2023-11-25T02:01:37;98168.94;;;7.34;100.00
57572;BME280;44459;43.522;24.470;2023-11-25T02:04:03;98169.81;;;7.35;100.00
57572;BME280;44459;43.522;24.470;2023-11-25T02:06:28;98177.69;;;7.35;100.00
57572;BME280;44459;43.522;24.470;2023-11-25T02:08:54;98177.78;;;7.27;100.00
57572;BME280;44459;43.522;24.470;2023-11-25T02:11:19;98186.56;;;7.25;100.00
57572;BME280;44459;43.522;24.470;2023-11-25T02:13:45;98192.66;;;7.27;100.00
57572;BME280;44459;43.522;24.470;2023-11-25T02:16:12;98199.69;;;7.25;100.00
57572;BME280;44459;43.522;24.470;2023-11-25T02:18:38;98197.13;;;7.20;100.00
57572;BME280;44459;43.522;24.470;2023-11-25T02:21:04;98207.63;;;7.19;100.00
57572;BME280;44459;43.522;24.470;2023-11-25T02:23:32;98201.53;;;7.17;100.00
57572;BME280;44459;43.522;24.470;2023-11-25T02:25:57;98193.72;;;7.14;100.00
57572;BME280;44459;43.522;24.470;2023-11-25T02:28:23;98187.69;;;7.05;100.00
57572;BME280;44459;43.522;24.470;2023-11-25T02:30:49;98172.88;;;7.03;100.00
57572;BME280;44459;43.522;24.470;2023-11-25T02:33:15;98166.78;;;6.98;100.00
57572;BME280;44459;43.522;24.470;2023-11-25T02:35:44;98151.09;;;6.95;100.00
57572;BME280;44459;43.522;24.470;2023-11-25T02:38:13;98154.72;;;6.86;100.00
57572;BME280;44459;43.522;24.470;2023-11-25T02:40:41;98160.91;;;6.82;100.00
57572;BME280;44459;43.522;24.470;2023-11-25T02:43:06;98166.19;;;6.78;100.00
57572;BME280;44459;43.522;24.470;2023-11-25T02:45:36;98151.31;;;6.80;100.00
57572;BME280;44459;43.522;24.470;2023-11-25T02:48:03;98138.09;;;6.87;100.00
57572;BME280;44459;43.522;24.470;2023-11-25T02:50:30;98122.34;;;6.87;100.00
57572;BME280;44459;43.522;24.470;2023-11-25T02:52:55;98124.97;;;6.90;100.00
57572;BME280;44459;43.522;24.470;2023-11-25T02:55:21;98123.22;;;6.89;100.00
57572;BME280;44459;43.522;24.470;2023-11-25T02:57:46;98110.00;;;6.95;100.00
57572;BME280;44459;43.522;24.470;2023-11-25T03:00:16;98110.06;;;6.92;100.00
57572;BME280;44459;43.522;24.470;2023-11-25T03:03:01;98104.00;;;6.87;100.00
57572;BME280;44459;43.522;24.470;2023-11-25T03:05:35;98103.97;;;6.90;100.00
57572;BME280;44459;43.522;24.470;2023-11-25T03:08:03;98111.88;;;6.87;100.00
57572;BME280;44459;43.522;24.470;2023-11-25T03:10:28;98116.28;;;6.85;100.00
57572;BME280;44459;43.522;24.470;2023-11-25T03:12:55;98130.25;;;6.84;100.00
57572;BME280;44459;43.522;24.470;2023-11-25T03:15:21;98139.88;;;6.85;100.00
57572;BME280;44459;43.522;24.470;2023-11-25T03:17:46;98138.97;;;6.88;100.00
57572;BME280;44459;43.522;24.470;2023-11-25T03:20:12;98138.25;;;6.77;100.00
57572;BME280;44459;43.522;24.470;2023-11-25T03:22:38;98148.75;;;6.77;100.00
57572;BME280;44459;43.522;24.470;2023-11-25T03:25:05;98146.09;;;6.78;100.00
57572;BME280;44459;43.522;24.470;2023-11-25T03:27:31;98146.13;;;6.77;100.00
57572;BME280;44459;43.522;24.470;2023-11-25T03:29:57;98147.00;;;6.74;100.00
57572;BME280;44459;43.522;24.470;2023-11-25T03:32:23;98132.94;;;6.83;100.00
57572;BME280;44459;43.522;24.470;2023-11-25T03:34:51;98135.69;;;6.72;100.00
57572;BME280;44459;43.522;24.470;2023-11-25T03:37:16;98139.09;;;6.77;100.00
57572;BME280;44459;43.522;24.470;2023-11-25T03:39:42;98147.81;;;6.79;100.00
57572;BME280;44459;43.522;24.470;2023-11-25T03:42:07;98147.00;;;6.74;100.00
57572;BME280;44459;43.522;24.470;2023-11-25T03:44:34;98153.06;;;6.79;100.00
57572;BME280;44459;43.522;24.470;2023-11-25T03:47:01;98138.19;;;6.81;100.00
57572;BME280;44459;43.522;24.470;2023-11-25T03:49:27;98115.41;;;6.85;100.00
57572;BME280;44459;43.522;24.470;2023-11-25T03:51:52;98111.94;;;6.81;100.00
57572;BME280;44459;43.522;24.470;2023-11-25T03:54:18;98104.91;;;6.85;100.00
57572;BME280;44459;43.522;24.470;2023-11-25T03:56:43;98112.72;;;6.89;100.00
57572;BME280;44459;43.522;24.470;2023-11-25T03:59:09;98112.81;;;6.83;100.00
57572;BME280;44459;43.522;24.470;2023-11-25T04:01:34;98102.53;;;6.68;100.00
57572;BME280;44459;43.522;24.470;2023-11-25T04:04:01;98104.31;;;6.66;100.00
57572;BME280;44459;43.522;24.470;2023-11-25T04:06:29;98109.56;;;6.65;100.00
57572;BME280;44459;43.522;24.470;2023-11-25T04:08:54;98110.38;;;6.67;100.00
57572;BME280;44459;43.522;24.470;2023-11-25T04:11:20;98118.28;;;6.64;100.00
57572;BME280;44459;43.522;24.470;2023-11-25T04:13:46;98120.91;;;6.64;100.00
57572;BME280;44459;43.522;24.470;2023-11-25T04:16:12;98125.28;;;6.63;100.00
57572;BME280;44459;43.522;24.470;2023-11-25T04:18:38;98129.84;;;6.47;100.00
57572;BME280;44459;43.522;24.470;2023-11-25T04:21:03;98120.25;;;6.46;100.00
57572;BME280;44459;43.522;24.470;2023-11-25T04:23:30;98124.63;;;6.47;100.00
57572;BME280;44459;43.522;24.470;2023-11-25T04:25:56;98126.38;;;6.48;100.00
57572;BME280;44459;43.522;24.470;2023-11-25T04:28:21;98124.75;;;6.38;100.00
57572;BME280;44459;43.522;24.470;2023-11-25T04:30:47;98127.44;;;6.31;100.00
57572;BME280;44459;43.522;24.470;2023-11-25T04:33:12;98127.47;;;6.28;100.00
57572;BME280;44459;43.522;24.470;2023-11-25T04:35:39;98134.50;;;6.23;100.00
57572;BME280;44459;43.522;24.470;2023-11-25T04:38:05;98116.34;;;6.04;100.00
57572;BME280;44459;43.522;24.470;2023-11-25T04:40:30;98134.00;;;5.86;100.00
57572;BME280;44459;43.522;24.470;2023-11-25T04:42:56;98128.91;;;5.65;100.00
57572;BME280;44459;43.522;24.470;2023-11-25T04:45:21;98121.06;;;5.63;100.00
57572;BME280;44459;43.522;24.470;2023-11-25T04:47:48;98122.81;;;5.64;100.00
57572;BME280;44459;43.522;24.470;2023-11-25T04:50:17;98119.31;;;5.65;100.00
57572;BME280;44459;43.522;24.470;2023-11-25T04:52:42;98125.44;;;5.66;100.00
57572;BME280;44459;43.522;24.470;2023-11-25T04:55:12;98124.59;;;5.59;100.00
57572;BME280;44459;43.522;24.470;2023-11-25T04:57:38;98114.31;;;5.38;100.00
57572;BME280;44459;43.522;24.470;2023-11-25T05:00:05;98115.13;;;5.43;100.00
57572;BME280;44459;43.522;24.470;2023-11-25T05:02:38;98113.41;;;5.40;100.00
57572;BME280;44459;43.522;24.470;2023-11-25T05:05:05;98109.06;;;5.39;100.00
57572;BME280;44459;43.522;24.470;2023-11-25T05:07:31;98109.06;;;5.35;100.00
57572;BME280;44459;43.522;24.470;2023-11-25T05:09:57;98102.97;;;5.36;100.00
57572;BME280;44459;43.522;24.470;2023-11-25T05:12:22;98104.72;;;5.37;100.00
57572;BME280;44459;43.522;24.470;2023-11-25T05:14:49;98106.50;;;5.33;100.00
57572;BME280;44459;43.522;24.470;2023-11-25T05:17:15;98109.16;;;5.24;100.00
57572;BME280;44459;43.522;24.470;2023-11-25T05:19:40;98117.00;;;5.27;100.00
57572;BME280;44459;43.522;24.470;2023-11-25T05:22:06;98116.16;;;5.21;100.00
57572;BME280;44459;43.522;24.470;2023-11-25T05:24:31;98117.00;;;5.26;100.00
57572;BME280;44459;43.522;24.470;2023-11-25T05:26:56;98117.06;;;5.15;100.00
57572;BME280;44459;43.522;24.470;2023-11-25T05:29:22;98128.41;;;5.17;100.00
57572;BME280;44459;43.522;24.470;2023-11-25T05:31:48;98127.50;;;5.20;100.00
57572;BME280;44459;43.522;24.470;2023-11-25T05:34:14;98129.25;;;5.18;100.00
57572;BME280;44459;43.522;24.470;2023-11-25T05:36:39;98133.56;;;5.25;100.00
57572;BME280;44459;43.522;24.470;2023-11-25T05:39:05;98136.25;;;5.14;100.00
57572;BME280;44459;43.522;24.470;2023-11-25T05:41:38;98149.31;;;5.14;100.00
57572;BME280;44459;43.522;24.470;2023-11-25T05:44:04;98149.31;;;5.14;100.00
57572;BME280;44459;43.522;24.470;2023-11-25T05:46:33;98146.69;;;5.19;100.00
57572;BME280;44459;43.522;24.470;2023-11-25T05:48:59;98140.63;;;5.11;100.00
57572;BME280;44459;43.522;24.470;2023-11-25T05:51:35;98145.84;;;5.11;100.00
57572;BME280;44459;43.522;24.470;2023-11-25T05:54:05;98155.47;;;5.13;100.00
57572;BME280;44459;43.522;24.470;2023-11-25T05:56:31;98158.94;;;5.11;100.00
57572;BME280;44459;43.522;24.470;2023-11-25T05:58:57;98161.56;;;5.12;100.00
57572;BME280;44459;43.522;24.470;2023-11-25T06:01:23;98161.53;;;5.11;100.00
57572;BME280;44459;43.522;24.470;2023-11-25T06:03:48;98164.19;;;5.07;100.00
57572;BME280;44459;43.522;24.470;2023-11-25T06:06:20;98172.03;;;5.04;100.00
57572;BME280;44459;43.522;24.470;2023-11-25T06:08:49;98174.66;;;5.07;100.00
57572;BME280;44459;43.522;24.470;2023-11-25T06:11:21;98171.19;;;5.04;100.00
57572;BME280;44459;43.522;24.470;2023-11-25T06:13:47;98182.47;;;5.11;100.00
57572;BME280;44459;43.522;24.470;2023-11-25T06:16:14;98175.50;;;5.13;100.00
57572;BME280;44459;43.522;24.470;2023-11-25T06:18:40;98172.81;;;5.23;100.00
57572;BME280;44459;43.522;24.470;2023-11-25T06:21:05;98178.09;;;5.17;100.00
57572;BME280;44459;43.522;24.470;2023-11-25T06:23:31;98175.47;;;5.19;100.00
57572;BME280;44459;43.522;24.470;2023-11-25T06:25:57;98184.25;;;5.10;100.00
57572;BME280;44459;43.522;24.470;2023-11-25T06:28:23;98179.84;;;5.12;100.00
57572;BME280;44459;43.522;24.470;2023-11-25T06:30:52;98180.78;;;5.06;100.00
57572;BME280;44459;43.522;24.470;2023-11-25T06:33:24;98189.44;;;5.15;100.00
57572;BME280;44459;43.522;24.470;2023-11-25T06:35:50;98179.91;;;5.04;100.00
57572;BME280;44459;43.522;24.470;2023-11-25T06:38:16;98181.69;;;4.99;100.00
57572;BME280;44459;43.522;24.470;2023-11-25T06:40:41;98194.72;;;5.05;100.00
57572;BME280;44459;43.522;24.470;2023-11-25T06:43:07;98192.13;;;5.02;100.00
57572;BME280;44459;43.522;24.470;2023-11-25T06:45:33;98193.88;;;4.97;100.00
57572;BME280;44459;43.522;24.470;2023-11-25T06:47:59;98193.84;;;5.06;100.00
57572;BME280;44459;43.522;24.470;2023-11-25T06:50:25;98192.06;;;5.08;100.00
57572;BME280;44459;43.522;24.470;2023-11-25T06:52:51;98189.44;;;5.16;100.00
57572;BME280;44459;43.522;24.470;2023-11-25T06:55:20;98190.31;;;5.12;100.00
57572;BME280;44459;43.522;24.470;2023-11-25T06:57:46;98187.72;;;5.04;100.00
57572;BME280;44459;43.522;24.470;2023-11-25T07:00:12;98188.63;;;5.00;100.00
57572;BME280;44459;43.522;24.470;2023-11-25T07:02:39;98183.47;;;4.85;100.00
57572;BME280;44459;43.522;24.470;2023-11-25T07:05:05;98178.28;;;4.81;100.00
57572;BME280;44459;43.522;24.470;2023-11-25T07:07:33;98193.06;;;4.80;100.00
57572;BME280;44459;43.522;24.470;2023-11-25T07:09:59;98198.28;;;4.86;100.00
57572;BME280;44459;43.522;24.470;2023-11-25T07:12:24;98201.78;;;4.81;100.00
57572;BME280;44459;43.522;24.470;2023-11-25T07:14:49;98203.53;;;4.77;100.00
57572;BME280;44459;43.522;24.470;2023-11-25T07:17:15;98210.50;;;4.80;100.00
57572;BME280;44459;43.522;24.470;2023-11-25T07:19:40;98201.81;;;4.73;100.00
57572;BME280;44459;43.522;24.470;2023-11-25T07:22:07;98204.47;;;4.67;100.00
57572;BME280;44459;43.522;24.470;2023-11-25T07:24:34;98208.75;;;4.80;100.00
57572;BME280;44459;43.522;24.470;2023-11-25T07:27:00;98217.44;;;4.88;100.00
57572;BME280;44459;43.522;24.470;2023-11-25T07:29:33;98207.91;;;4.77;100.00
57572;BME280;44459;43.522;24.470;2023-11-25T07:32:02;98207.03;;;4.78;100.00
57572;BME280;44459;43.522;24.470;2023-11-25T07:34:28;98200.94;;;4.73;100.00
57572;BME280;44459;43.522;24.470;2023-11-25T07:36:56;98197.47;;;4.74;100.00
57572;BME280;44459;43.522;24.470;2023-11-25T07:39:21;98197.47;;;4.74;100.00
57572;BME280;44459;43.522;24.470;2023-11-25T07:41:51;98196.53;;;4.87;100.00
57572;BME280;44459;43.522;24.470;2023-11-25T07:44:20;98206.09;;;4.91;100.00
57572;BME280;44459;43.522;24.470;2023-11-25T07:46:47;98201.75;;;4.87;100.00
57572;BME280;44459;43.522;24.470;2023-11-25T07:49:13;98205.25;;;4.89;100.00
57572;BME280;44459;43.522;24.470;2023-11-25T07:51:38;98219.19;;;4.86;100.00
57572;BME280;44459;43.522;24.470;2023-11-25T07:54:03;98211.34;;;4.88;100.00
57572;BME280;44459;43.522;24.470;2023-11-25T07:56:29;98213.06;;;4.95;100.00
57572;BME280;44459;43.522;24.470;2023-11-25T07:58:55;98212.22;;;4.88;100.00
57572;BME280;44459;43.522;24.470;2023-11-25T08:01:21;98213.13;;;4.77;100.00
57572;BME280;44459;43.522;24.470;2023-11-25T08:03:46;98216.63;;;4.74;100.00
57572;BME280;44459;43.522;24.470;2023-11-25T08:06:14;98208.78;;;4.70;100.00
57572;BME280;44459;43.522;24.470;2023-11-25T08:08:40;98215.75;;;4.75;100.00
57572;BME280;44459;43.522;24.470;2023-11-25T08:11:07;98217.50;;;4.73;100.00
57572;BME280;44459;43.522;24.470;2023-11-25T08:13:34;98225.31;;;4.78;100.00
57572;BME280;44459;43.522;24.470;2023-11-25T08:16:00;98220.97;;;4.77;100.00
57572;BME280;44459;43.522;24.470;2023-11-25T08:18:27;98221.84;;;4.82;100.00
57572;BME280;44459;43.522;24.470;2023-11-25T08:20:53;98220.09;;;4.78;100.00
57572;BME280;44459;43.522;24.470;2023-11-25T08:23:18;98219.19;;;4.86;100.00
57572;BME280;44459;43.522;24.470;2023-11-25T08:25:45;98209.59;;;4.87;100.00
57572;BME280;44459;43.522;24.470;2023-11-25T08:28:10;98208.78;;;4.79;100.00
57572;BME280;44459;43.522;24.470;2023-11-25T08:30:36;98208.81;;;4.67;100.00
57572;BME280;44459;43.522;24.470;2023-11-25T08:33:02;98206.22;;;4.56;100.00
57572;BME280;44459;43.522;24.470;2023-11-25T08:35:29;98215.84;;;4.34;100.00
57572;BME280;44459;43.522;24.470;2023-11-25T08:37:55;98211.53;;;4.11;100.00
57572;BME280;44459;43.522;24.470;2023-11-25T08:40:20;98217.66;;;3.91;100.00
57572;BME280;44459;43.522;24.470;2023-11-25T08:42:47;98222.00;;;3.67;100.00
57572;BME280;44459;43.522;24.470;2023-11-25T08:45:14;98220.22;;;3.52;100.00
57572;BME280;44459;43.522;24.470;2023-11-25T08:47:40;98217.59;;;3.37;100.00
57572;BME280;44459;43.522;24.470;2023-11-25T08:50:08;98228.03;;;3.29;100.00
57572;BME280;44459;43.522;24.470;2023-11-25T08:52:36;98233.19;;;3.16;100.00
57572;BME280;44459;43.522;24.470;2023-11-25T08:55:07;98232.22;;;2.92;100.00
57572;BME280;44459;43.522;24.470;2023-11-25T08:57:36;98224.41;;;2.95;100.00
57572;BME280;44459;43.522;24.470;2023-11-25T09:00:03;98230.47;;;2.84;100.00
57572;BME280;44459;43.522;24.470;2023-11-25T09:02:41;98218.25;;;2.72;100.00
57572;BME280;44459;43.522;24.470;2023-11-25T09:05:07;98221.69;;;2.65;100.00
57572;BME280;44459;43.522;24.470;2023-11-25T09:07:32;98216.50;;;2.64;100.00
57572;BME280;44459;43.522;24.470;2023-11-25T09:09:58;98213.84;;;2.56;100.00
57572;BME280;44459;43.522;24.470;2023-11-25T09:12:24;98210.34;;;2.51;100.00
57572;BME280;44459;43.522;24.470;2023-11-25T09:14:50;98205.19;;;2.60;100.00
57572;BME280;44459;43.522;24.470;2023-11-25T09:17:15;98207.75;;;2.54;100.00
57572;BME280;44459;43.522;24.470;2023-11-25T09:19:42;98205.97;;;2.42;100.00
57572;BME280;44459;43.522;24.470;2023-11-25T09:22:08;98214.63;;;2.44;100.00
57572;BME280;44459;43.522;24.470;2023-11-25T09:24:34;98199.84;;;2.37;100.00
57572;BME280;44459;43.522;24.470;2023-11-25T09:27:00;98193.75;;;2.37;100.00
57572;BME280;44459;43.522;24.470;2023-11-25T09:29:25;98187.66;;;2.30;100.00
57572;BME280;44459;43.522;24.470;2023-11-25T09:31:51;98194.59;;;2.30;100.00
57572;BME280;44459;43.522;24.470;2023-11-25T09:34:16;98198.06;;;2.30;100.00
57572;BME280;44459;43.522;24.470;2023-11-25T09:36:41;98203.31;;;2.38;100.00
57572;BME280;44459;43.522;24.470;2023-11-25T09:39:07;98189.47;;;2.42;100.00
57572;BME280;44459;43.522;24.470;2023-11-25T09:41:35;98184.25;;;2.39;100.00
57572;BME280;44459;43.522;24.470;2023-11-25T09:44:02;98178.94;;;2.24;100.00
57572;BME280;44459;43.522;24.470;2023-11-25T09:46:32;98171.09;;;2.19;100.00
57572;BME280;44459;43.522;24.470;2023-11-25T09:48:57;98153.78;;;2.23;100.00
57572;BME280;44459;43.522;24.470;2023-11-25T09:51:23;98164.19;;;2.26;100.00
57572;BME280;44459;43.522;24.470;2023-11-25T09:53:56;98159.88;;;2.29;100.00
57572;BME280;44459;43.522;24.470;2023-11-25T09:56:22;98152.91;;;2.21;100.00
57572;BME280;44459;43.522;24.470;2023-11-25T09:58:49;98139.91;;;2.21;100.00
57572;BME280;44459;43.522;24.470;2023-11-25T10:01:14;98139.88;;;2.22;100.00
57572;BME280;44459;43.522;24.470;2023-11-25T10:03:42;98144.22;;;2.17;100.00
57572;BME280;44459;43.522;24.470;2023-11-25T10:06:08;98149.47;;;2.26;100.00
57572;BME280;44459;43.522;24.470;2023-11-25T10:08:34;98133.00;;;2.27;100.00
57572;BME280;44459;43.522;24.470;2023-11-25T10:11:05;98136.44;;;2.26;100.00
57572;BME280;44459;43.522;24.470;2023-11-25T10:13:35;98133.84;;;2.29;100.00
57572;BME280;44459;43.522;24.470;2023-11-25T10:16:01;98133.84;;;2.22;100.00
57572;BME280;44459;43.522;24.470;2023-11-25T10:18:27;98124.31;;;2.27;100.00
57572;BME280;44459;43.522;24.470;2023-11-25T10:20:54;98126.06;;;2.31;100.00
57572;BME280;44459;43.522;24.470;2023-11-25T10:23:24;98127.84;;;2.44;100.00
57572;BME280;44459;43.522;24.470;2023-11-25T10:25:50;98114.00;;;2.52;100.00
57572;BME280;44459;43.522;24.470;2023-11-25T10:28:25;98113.13;;;2.52;100.00
57572;BME280;44459;43.522;24.470;2023-11-25T10:30:55;98113.13;;;2.46;100.00
57572;BME280;44459;43.522;24.470;2023-11-25T10:33:23;98109.69;;;2.56;100.00
57572;BME280;44459;43.522;24.470;2023-11-25T10:35:53;98095.72;;;2.37;100.00
57572;BME280;44459;43.522;24.470;2023-11-25T10:38:19;98103.56;;;2.46;100.00
57572;BME280;44459;43.522;24.470;2023-11-25T10:40:51;98096.63;;;2.50;100.00
57572;BME280;44459;43.522;24.470;2023-11-25T10:43:19;98100.09;;;2.43;100.00
57572;BME280;44459;43.522;24.470;2023-11-25T10:45:45;98111.38;;;2.51;100.00
57572;BME280;44459;43.522;24.470;2023-11-25T10:48:11;98110.56;;;2.60;100.00
57572;BME280;44459;43.522;24.470;2023-11-25T10:50:40;98108.81;;;2.62;100.00
57572;BME280;44459;43.522;24.470;2023-11-25T10:53:06;98107.94;;;2.64;100.00
57572;BME280;44459;43.522;24.470;2023-11-25T10:55:36;98100.16;;;2.72;100.00
57572;BME280;44459;43.522;24.470;2023-11-25T10:58:03;98102.78;;;2.76;100.00
57572;BME280;44459;43.522;24.470;2023-11-25T11:00:30;98098.44;;;2.78;100.00
57572;BME280;44459;43.522;24.470;2023-11-25T11:02:57;98088.91;;;2.89;100.00
57572;BME280;44459;43.522;24.470;2023-11-25T11:08:07;98087.22;;;3.00;100.00
57572;BME280;44459;43.522;24.470;2023-11-25T11:10:41;98084.59;;;2.94;100.00
57572;BME280;44459;43.522;24.470;2023-11-25T11:13:10;98082.84;;;2.86;100.00
57572;BME280;44459;43.522;24.470;2023-11-25T11:15:38;98077.63;;;2.96;100.00
57572;BME280;44459;43.522;24.470;2023-11-25T11:18:26;98084.63;;;3.05;100.00
57572;BME280;44459;43.522;24.470;2023-11-25T11:20:54;98083.75;;;3.11;100.00
57572;BME280;44459;43.522;24.470;2023-11-25T11:23:22;98068.09;;;3.17;100.00
57572;BME280;44459;43.522;24.470;2023-11-25T11:25:53;98063.75;;;3.13;100.00
57572;BME280;44459;43.522;24.470;2023-11-25T11:28:25;98064.63;;;3.18;100.00
57572;BME280;44459;43.522;24.470;2023-11-25T11:33:45;98057.69;;;3.29;100.00
57572;BME280;44459;43.522;24.470;2023-11-25T11:36:30;98056.81;;;3.34;100.00
57572;BME280;44459;43.522;24.470;2023-11-25T11:38:56;98042.91;;;3.40;100.00
57572;BME280;44459;43.522;24.470;2023-11-25T11:44:04;98031.56;;;3.51;100.00
57572;BME280;44459;43.522;24.470;2023-11-25T11:46:30;98022.00;;;3.52;100.00
57572;BME280;44459;43.522;24.470;2023-11-25T11:49:06;98010.69;;;3.54;100.00
57572;BME280;44459;43.522;24.470;2023-11-25T11:51:32;98008.97;;;3.57;100.00
57572;BME280;44459;43.522;24.470;2023-11-25T11:57:05;98004.59;;;3.69;100.00
57572;BME280;44459;43.522;24.470;2023-11-25T11:59:55;98004.59;;;3.71;100.00
57572;BME280;44459;43.522;24.470;2023-11-25T12:02:23;97995.91;;;3.70;100.00
57572;BME280;44459;43.522;24.470;2023-11-25T12:04:48;97993.25;;;3.81;100.00
57572;BME280;44459;43.522;24.470;2023-11-25T12:07:13;97979.28;;;3.92;100.00
57572;BME280;44459;43.522;24.470;2023-11-25T12:09:39;97978.38;;;3.99;100.00
57572;BME280;44459;43.522;24.470;2023-11-25T12:12:05;97974.00;;;4.03;100.00
57572;BME280;44459;43.522;24.470;2023-11-25T12:14:31;97955.75;;;4.06;100.00
57572;BME280;44459;43.522;24.470;2023-11-25T12:16:56;97957.41;;;4.13;100.00
57572;BME280;44459;43.522;24.470;2023-11-25T12:19:23;97959.19;;;4.11;100.00
57572;BME280;44459;43.522;24.470;2023-11-25T12:21:50;97957.44;;;4.12;100.00
57572;BME280;44459;43.522;24.470;2023-11-25T12:24:16;97964.41;;;4.11;100.00
57572;BME280;44459;43.522;24.470;2023-11-25T12:26:43;97960.03;;;4.15;100.00
57572;BME280;44459;43.522;24.470;2023-11-25T12:29:16;97967.00;;;4.14;100.00
57572;BME280;44459;43.522;24.470;2023-11-25T12:31:41;97987.00;;;4.20;100.00
57572;BME280;44459;43.522;24.470;2023-11-25T12:34:07;97989.59;;;4.21;100.00
57572;BME280;44459;43.522;24.470;2023-11-25T12:36:32;97996.53;;;4.24;100.00
57572;BME280;44459;43.522;24.470;2023-11-25T12:38:58;98007.03;;;4.15;100.00
57572;BME280;44459;43.522;24.470;2023-11-25T12:41:23;98011.38;;;4.14;100.00
57572;BME280;44459;43.522;24.470;2023-11-25T12:44:08;98006.16;;;4.14;100.00
57572;BME280;44459;43.522;24.470;2023-11-25T12:46:40;97992.22;;;4.14;100.00
57572;BME280;44459;43.522;24.470;2023-11-25T12:49:19;97990.47;;;4.20;100.00
57572;BME280;44459;43.522;24.470;2023-11-25T12:51:44;97973.03;;;4.24;100.00
57572;BME280;44459;43.522;24.470;2023-11-25T12:54:10;97966.06;;;4.30;100.00
57572;BME280;44459;43.522;24.470;2023-11-25T12:56:36;97962.50;;;4.39;100.00
57572;BME280;44459;43.522;24.470;2023-11-25T12:59:03;97951.16;;;4.43;100.00
57572;BME280;44459;43.522;24.470;2023-11-25T13:01:29;97952.91;;;4.47;100.00